Time;durP1;ratioP1;P1;durP2;ratioP2;P2;SDS_P1;SDS_P2;PMS_P1;PMS_P2;Temp;Humidity;BMP_temperature;BMP_pressure;BME280_temperature;BME280_humidity;BME280_pressure;Samples;Min_cycle;Max_cycle;Signal;HPM_P1;HPM_P2
2020/12/02 00:00:15;;;;;;;18.13;9.32;;;3.60;99.90;;;;;;5099497;28;20286;-54
2020/12/02 00:03:19;;;;;;;28.80;11.23;;;3.70;99.90;;;;;;5098531;28;20498;-55
2020/12/02 00:05:56;;;;;;;25.45;10.13;;;3.60;99.90;;;;;;5101228;28;20054;-54
2020/12/02 00:08:33;;;;;;;26.95;10.18;;;3.60;99.90;;;;;;5083504;28;20634;-56
2020/12/02 00:11:07;;;;;;;27.05;10.35;;;3.60;99.90;;;;;;5084279;28;20406;-57
2020/12/02 00:13:36;;;;;;;36.30;11.82;;;3.60;99.90;;;;;;5084012;28;20041;-54
2020/12/02 00:16:03;;;;;;;24.35;10.60;;;3.70;99.90;;;;;;5069769;28;20036;-53
2020/12/02 00:18:29;;;;;;;31.98;10.48;;;3.70;99.90;;;;;;5069605;28;20467;-54
2020/12/02 00:20:55;;;;;;;33.38;10.60;;;3.70;99.90;;;;;;5069666;28;20429;-51
2020/12/02 00:23:20;;;;;;;53.47;11.07;;;3.60;99.90;;;;;;5069080;28;20561;-52
2020/12/02 00:25:46;;;;;;;47.85;11.35;;;3.60;99.90;;;;;;5085990;28;20611;-54
2020/12/02 00:28:13;;;;;;;39.45;10.70;;;3.60;99.90;;;;;;5076734;28;20503;-52
2020/12/02 00:30:40;;;;;;;22.77;10.02;;;3.60;99.90;;;;;;5067840;28;20040;-52
2020/12/02 00:33:12;;;;;;;42.47;9.45;;;3.60;99.90;;;;;;5069340;28;20040;-54
2020/12/02 00:35:38;;;;;;;46.58;10.40;;;3.50;99.90;;;;;;5068650;28;20036;-52
2020/12/02 00:38:07;;;;;;;34.53;10.40;;;3.50;99.90;;;;;;5071269;28;20114;-54
2020/12/02 00:40:33;;;;;;;64.40;10.88;;;3.50;99.90;;;;;;5088605;28;20036;-50
2020/12/02 00:42:59;;;;;;;55.75;10.38;;;3.50;99.90;;;;;;5089468;28;20075;-56
2020/12/02 00:45:25;;;;;;;81.65;13.00;;;3.50;99.90;;;;;;5087996;28;20093;-53
2020/12/02 00:47:51;;;;;;;55.85;11.77;;;3.40;99.90;;;;;;5087343;28;20044;-54
2020/12/02 00:50:18;;;;;;;41.53;11.95;;;3.40;99.90;;;;;;5088391;28;20036;-51
2020/12/02 00:53:01;;;;;;;42.92;11.40;;;3.40;99.90;;;;;;5067997;28;20044;-50
2020/12/02 00:55:27;;;;;;;29.08;11.63;;;3.40;99.90;;;;;;5083512;28;20043;-54
2020/12/02 00:57:53;;;;;;;25.75;10.23;;;3.40;99.90;;;;;;5072484;28;20032;-56
2020/12/02 01:00:19;;;;;;;21.77;10.13;;;3.40;99.90;;;;;;5069227;28;20051;-54
2020/12/02 01:03:08;;;;;;;150.30;15.00;;;3.40;99.90;;;;;;5088305;28;20140;-56
2020/12/02 01:05:34;;;;;;;53.92;12.63;;;3.50;99.90;;;;;;5087602;28;20130;-52
2020/12/02 01:08:36;;;;;;;94.47;14.60;;;3.50;99.90;;;;;;5087710;28;20039;-53
2020/12/02 01:11:21;;;;;;;184.68;17.10;;;3.40;99.90;;;;;;5089353;28;20042;-52
2020/12/02 01:13:52;;;;;;;94.80;13.20;;;3.30;99.90;;;;;;5088523;28;20115;-54
2020/12/02 01:16:21;;;;;;;74.53;11.98;;;3.30;99.90;;;;;;5077126;28;20111;-52
2020/12/02 01:18:46;;;;;;;46.00;10.98;;;3.20;99.90;;;;;;5083911;28;20032;-55
2020/12/02 01:21:22;;;;;;;33.53;9.52;;;3.20;99.90;;;;;;5087432;28;20064;-51
2020/12/02 01:23:52;;;;;;;30.27;9.77;;;3.30;99.90;;;;;;5079441;28;20045;-53
2020/12/02 01:26:19;;;;;;;31.58;9.13;;;3.40;99.90;;;;;;5087090;28;20371;-54
2020/12/02 01:28:47;;;;;;;33.40;9.88;;;3.30;99.90;;;;;;5086608;28;20040;-54
2020/12/02 01:31:13;;;;;;;34.22;10.18;;;3.40;99.90;;;;;;5075535;28;20043;-49
2020/12/02 01:33:39;;;;;;;38.13;10.43;;;3.30;99.90;;;;;;5067685;28;20044;-51
2020/12/02 01:36:05;;;;;;;69.45;10.82;;;3.30;99.90;;;;;;5067482;28;20055;-54
2020/12/02 01:38:35;;;;;;;32.72;8.85;;;3.30;99.90;;;;;;5073605;28;20040;-56
2020/12/02 01:41:01;;;;;;;129.10;15.20;;;3.30;99.90;;;;;;5086663;28;20076;-53
2020/12/02 01:43:26;;;;;;;134.07;14.68;;;3.30;99.90;;;;;;5087883;28;20071;-54
2020/12/02 01:46:09;;;;;;;71.95;10.90;;;3.10;99.90;;;;;;5086095;28;20062;-51
2020/12/02 01:49:13;;;;;;;63.15;12.02;;;3.20;99.90;;;;;;5086960;28;20050;-55
2020/12/02 01:52:13;;;;;;;105.35;11.63;;;3.30;99.90;;;;;;5074769;28;20040;-53
2020/12/02 01:54:47;;;;;;;66.22;10.80;;;3.20;99.90;;;;;;5073982;28;20043;-53
2020/12/02 01:57:24;;;;;;;24.13;9.20;;;3.20;99.90;;;;;;5076898;28;20045;-51
2020/12/02 01:59:59;;;;;;;18.15;8.20;;;3.30;99.90;;;;;;5083396;28;20040;-55
2020/12/02 02:02:35;;;;;;;18.95;7.72;;;3.30;99.90;;;;;;5086216;28;20040;-55
2020/12/02 02:05:03;;;;;;;;;;;3.30;99.90;;;;;;5087302;28;20058;-51
2020/12/02 02:07:31;;;;;;;13.48;7.00;;;3.30;99.90;;;;;;5085185;28;20375;-51
2020/12/02 02:10:06;;;;;;;16.15;8.05;;;3.30;99.90;;;;;;5087145;28;20047;-52
2020/12/02 02:13:10;;;;;;;17.77;9.00;;;3.20;99.90;;;;;;5087032;28;20416;-52
2020/12/02 02:15:54;;;;;;;19.23;8.15;;;3.30;99.90;;;;;;5087212;28;20044;-53
2020/12/02 02:18:22;;;;;;;16.48;7.90;;;3.30;99.90;;;;;;5072351;28;20123;-56
2020/12/02 02:21:03;;;;;;;18.92;8.02;;;3.30;99.90;;;;;;5069723;28;20035;-50
2020/12/02 02:23:29;;;;;;;24.13;8.23;;;3.20;99.90;;;;;;5082180;28;20567;-56
2020/12/02 02:26:10;;;;;;;17.08;8.20;;;3.10;99.90;;;;;;5083157;28;20108;-52
2020/12/02 02:28:40;;;;;;;20.25;8.00;;;3.20;99.90;;;;;;5087586;28;20035;-55
2020/12/02 02:31:11;;;;;;;17.50;7.47;;;3.20;99.90;;;;;;5087274;28;20101;-52
2020/12/02 02:33:37;;;;;;;26.23;8.75;;;3.20;99.90;;;;;;5086660;28;20109;-53
2020/12/02 02:36:03;;;;;;;12.43;6.22;;;3.20;99.90;;;;;;5087169;28;20040;-51
2020/12/02 02:38:28;;;;;;;8.98;4.43;;;3.20;99.90;;;;;;5078856;28;20028;-52
2020/12/02 02:40:54;;;;;;;6.82;3.85;;;3.20;99.90;;;;;;5067636;28;20465;-51
2020/12/02 02:43:19;;;;;;;5.78;2.95;;;3.20;99.90;;;;;;5086004;28;20036;-54
2020/12/02 02:45:45;;;;;;;;;;;3.30;99.90;;;;;;5087447;28;20039;-52
2020/12/02 02:48:10;;;;;;;10.43;4.40;;;3.20;99.90;;;;;;5082388;28;20003;-52
2020/12/02 02:50:36;;;;;;;8.63;4.50;;;3.20;99.90;;;;;;5071460;28;20057;-49
2020/12/02 02:53:13;;;;;;;8.88;4.65;;;3.20;99.90;;;;;;5085477;28;20048;-51
2020/12/02 02:55:38;;;;;;;;;;;3.10;99.90;;;;;;5082953;28;20123;-55
2020/12/02 02:58:04;;;;;;;9.50;4.67;;;3.00;99.90;;;;;;5085953;28;20002;-57
2020/12/02 03:00:32;;;;;;;9.98;4.43;;;3.00;99.90;;;;;;5066409;28;20048;-53
2020/12/02 03:02:58;;;;;;;7.85;4.53;;;3.00;99.90;;;;;;5067116;28;20808;-52
2020/12/02 03:05:24;;;;;;;9.20;4.38;;;3.00;99.90;;;;;;5068389;28;20068;-53
2020/12/02 03:07:58;;;;;;;7.82;4.05;;;3.00;99.90;;;;;;5067526;28;20048;-52
2020/12/02 03:10:27;;;;;;;6.07;3.10;;;2.90;99.90;;;;;;5071226;28;20091;-56
2020/12/02 03:12:54;;;;;;;6.53;3.35;;;2.80;99.90;;;;;;5087596;28;20048;-51
2020/12/02 03:15:20;;;;;;;8.38;3.80;;;2.90;99.90;;;;;;5087427;28;20038;-52
2020/12/02 03:17:46;;;;;;;7.97;3.75;;;2.80;99.90;;;;;;5087806;28;20040;-55
2020/12/02 03:20:29;;;;;;;9.15;4.38;;;2.80;99.90;;;;;;5087365;28;20495;-52
2020/12/02 03:22:54;;;;;;;10.63;5.35;;;2.80;99.90;;;;;;5086462;28;20041;-52
2020/12/02 03:25:24;;;;;;;11.07;5.25;;;2.90;99.90;;;;;;5079433;28;20093;-48
2020/12/02 03:27:50;;;;;;;7.88;4.60;;;2.90;99.90;;;;;;5087602;28;20036;-55
2020/12/02 03:30:17;;;;;;;9.18;4.30;;;2.90;99.90;;;;;;5083283;28;20093;-57
2020/12/02 03:32:43;;;;;;;12.65;5.15;;;2.80;99.90;;;;;;5087140;28;20040;-53
2020/12/02 03:35:10;;;;;;;9.45;4.93;;;2.90;99.90;;;;;;5068301;28;20403;-52
2020/12/02 03:37:35;;;;;;;8.73;4.57;;;2.90;99.90;;;;;;5066942;28;20446;-55
2020/12/02 03:40:06;;;;;;;8.82;4.70;;;2.80;99.90;;;;;;5066261;28;20408;-52
2020/12/02 03:42:32;;;;;;;9.07;4.60;;;2.90;99.90;;;;;;5078748;28;20070;-56
2020/12/02 03:44:58;;;;;;;6.13;3.60;;;2.80;99.90;;;;;;5087981;28;20060;-52
2020/12/02 03:47:23;;;;;;;7.00;3.72;;;2.80;99.90;;;;;;5086357;28;20036;-54
2020/12/02 03:49:49;;;;;;;;;;;2.80;99.90;;;;;;5068996;28;20043;-54
2020/12/02 03:52:14;;;;;;;7.53;3.83;;;2.80;99.90;;;;;;5090702;28;19915;-52
2020/12/02 03:54:40;;;;;;;8.57;4.43;;;2.70;99.90;;;;;;5089706;28;20032;-55
2020/12/02 03:57:05;;;;;;;9.52;4.75;;;2.70;99.90;;;;;;5090572;28;20123;-54
2020/12/02 03:59:31;;;;;;;7.80;4.15;;;2.70;99.90;;;;;;5076891;28;20341;-53
2020/12/02 04:01:56;;;;;;;6.65;3.72;;;2.60;99.90;;;;;;5069527;28;20071;-49
2020/12/02 04:04:23;;;;;;;5.05;3.10;;;2.70;99.90;;;;;;5070101;28;20167;-52
2020/12/02 04:06:48;;;;;;;6.55;3.47;;;2.70;99.90;;;;;;5070372;28;20507;-56
2020/12/02 04:09:14;;;;;;;8.20;3.72;;;2.70;99.90;;;;;;5071548;28;20083;-49
2020/12/02 04:11:39;;;;;;;5.85;3.42;;;2.70;99.90;;;;;;5080698;28;20411;-52
2020/12/02 04:14:05;;;;;;;7.55;4.07;;;2.70;99.90;;;;;;5090415;28;20036;-53
2020/12/02 04:16:30;;;;;;;8.35;4.30;;;2.70;99.90;;;;;;5089422;28;20032;-56
2020/12/02 04:18:59;;;;;;;8.85;4.07;;;2.70;99.90;;;;;;5089925;28;20050;-54
2020/12/02 04:21:25;;;;;;;7.13;3.92;;;2.70;99.90;;;;;;5090067;28;20498;-56
2020/12/02 04:23:55;;;;;;;6.03;3.22;;;2.60;99.90;;;;;;5081241;28;20484;-56
2020/12/02 04:26:21;;;;;;;11.32;4.40;;;2.60;99.90;;;;;;5083031;28;20135;-57
2020/12/02 04:28:47;;;;;;;6.85;3.85;;;2.50;99.90;;;;;;5089698;28;20751;-56
2020/12/02 04:31:12;;;;;;;6.97;3.80;;;2.50;99.90;;;;;;5088520;28;20051;-55
2020/12/02 04:33:38;;;;;;;6.18;3.70;;;2.50;99.90;;;;;;5069882;28;20048;-56
2020/12/02 04:36:04;;;;;;;7.72;3.88;;;2.50;99.90;;;;;;5069840;28;20033;-51
2020/12/02 04:38:29;;;;;;;6.10;3.50;;;2.50;99.90;;;;;;5076371;28;20201;-54
2020/12/02 04:40:55;;;;;;;6.28;3.45;;;2.60;99.90;;;;;;5088423;28;20630;-54
2020/12/02 04:43:32;;;;;;;7.70;4.15;;;2.60;99.90;;;;;;5090024;28;20044;-50
2020/12/02 04:45:59;;;;;;;7.50;3.63;;;2.70;99.90;;;;;;5089810;28;20130;-55
2020/12/02 04:48:30;;;;;;;8.65;4.55;;;2.60;99.90;;;;;;5089213;28;20032;-50
2020/12/02 04:51:03;;;;;;;9.35;4.97;;;2.60;99.90;;;;;;5082726;28;20090;-53
2020/12/02 04:53:28;;;;;;;9.15;4.53;;;2.60;99.90;;;;;;5069182;28;20408;-54
2020/12/02 04:55:57;;;;;;;11.32;5.30;;;2.60;99.90;;;;;;5088722;28;20032;-55
2020/12/02 04:58:29;;;;;;;9.52;4.57;;;2.60;99.90;;;;;;5089116;28;20032;-54
2020/12/02 05:01:12;;;;;;;10.75;4.97;;;2.60;99.90;;;;;;5088211;28;20052;-54
2020/12/02 05:03:50;;;;;;;12.65;5.32;;;2.50;99.90;;;;;;5076900;28;20814;-55
2020/12/02 05:06:27;;;;;;;12.90;5.47;;;2.50;99.90;;;;;;5069016;28;20040;-54
2020/12/02 05:09:16;;;;;;;12.40;5.47;;;2.50;99.90;;;;;;5074012;28;20499;-50
2020/12/02 05:11:42;;;;;;;11.52;5.53;;;2.50;99.90;;;;;;5089799;28;20082;-53
2020/12/02 05:14:14;;;;;;;10.88;4.97;;;2.50;99.90;;;;;;5088704;28;20058;-56
2020/12/02 05:16:40;;;;;;;12.48;5.45;;;2.50;99.90;;;;;;5088811;28;20051;-53
2020/12/02 05:19:17;;;;;;;12.57;5.55;;;2.50;99.90;;;;;;5089316;28;20036;-53
2020/12/02 05:21:43;;;;;;;14.88;6.05;;;2.50;99.90;;;;;;5088895;28;20044;-54
2020/12/02 05:24:15;;;;;;;16.15;6.60;;;2.50;99.90;;;;;;5087999;28;20721;-55
2020/12/02 05:26:46;;;;;;;18.30;6.40;;;2.60;99.90;;;;;;5089046;28;20043;-58
2020/12/02 05:29:41;;;;;;;12.40;6.05;;;2.60;99.90;;;;;;5087663;28;20040;-59
2020/12/02 05:32:15;;;;;;;14.55;5.85;;;2.60;99.90;;;;;;5068068;28;20040;-59
2020/12/02 05:34:40;;;;;;;11.45;5.72;;;2.60;99.90;;;;;;5068254;28;20048;-59
2020/12/02 05:37:10;;;;;;;13.05;6.00;;;2.60;99.90;;;;;;5069283;28;20582;-56
2020/12/02 05:39:35;;;;;;;15.38;6.95;;;2.60;99.90;;;;;;5077265;28;20040;-57
2020/12/02 05:42:04;;;;;;;15.82;7.00;;;2.60;99.90;;;;;;5088369;28;20036;-53
2020/12/02 05:44:36;;;;;;;12.82;5.88;;;2.60;99.90;;;;;;5080165;28;20083;-57
2020/12/02 05:47:06;;;;;;;9.77;5.00;;;2.60;99.90;;;;;;5067569;28;20459;-53
2020/12/02 05:49:44;;;;;;;7.40;3.70;;;2.60;99.90;;;;;;5082445;28;20048;-56
2020/12/02 05:52:18;;;;;;;9.27;4.80;;;2.60;99.90;;;;;;5071280;28;20572;-57
2020/12/02 05:54:45;;;;;;;16.48;4.90;;;2.60;99.90;;;;;;5069030;28;20044;-59
2020/12/02 05:57:16;;;;;;;24.67;9.50;;;2.50;99.90;;;;;;5080013;28;20040;-54
2020/12/02 05:59:41;;;;;;;6.40;3.50;;;2.40;99.90;;;;;;5084324;28;20046;-53
2020/12/02 06:02:07;;;;;;;6.03;3.65;;;2.40;99.90;;;;;;5086784;28;20032;-52
2020/12/02 06:04:33;;;;;;;6.18;3.17;;;2.40;99.90;;;;;;5086967;28;20047;-51
2020/12/02 06:06:59;;;;;;;8.85;4.68;;;2.40;99.90;;;;;;5087892;28;20040;-52
2020/12/02 06:09:38;;;;;;;8.70;4.03;;;2.40;99.90;;;;;;5087820;28;20044;-51
2020/12/02 06:12:04;;;;;;;8.57;4.28;;;2.40;99.90;;;;;;5087530;28;20036;-56
2020/12/02 06:14:33;;;;;;;7.30;3.92;;;2.40;99.90;;;;;;5087435;28;20507;-58
2020/12/02 06:17:00;;;;;;;7.85;3.88;;;2.40;99.90;;;;;;5086673;28;20046;-56
2020/12/02 06:19:29;;;;;;;4.60;2.70;;;2.30;99.90;;;;;;5084633;28;20047;-57
2020/12/02 06:22:00;;;;;;;4.75;3.15;;;2.30;99.90;;;;;;5087783;28;20027;-57
2020/12/02 06:24:32;;;;;;;5.97;3.33;;;2.30;99.90;;;;;;5077545;28;20054;-56
2020/12/02 06:26:57;;;;;;;5.10;2.88;;;2.20;99.90;;;;;;5087310;28;20044;-56
2020/12/02 06:29:35;;;;;;;4.45;3.00;;;2.20;99.90;;;;;;5081789;28;20032;-58
2020/12/02 06:32:17;;;;;;;6.30;3.67;;;2.20;99.90;;;;;;5066288;28;20052;-55
2020/12/02 06:34:46;;;;;;;7.68;3.72;;;2.10;99.90;;;;;;5067339;28;20048;-56
2020/12/02 06:37:21;;;;;;;5.95;3.72;;;2.10;99.90;;;;;;5066673;28;20411;-55
2020/12/02 06:39:58;;;;;;;8.50;4.03;;;2.10;99.90;;;;;;5067483;28;20068;-58
2020/12/02 06:42:33;;;;;;;5.35;3.45;;;2.00;99.90;;;;;;5071619;28;20048;-54
2020/12/02 06:45:18;;;;;;;6.28;3.50;;;2.00;99.90;;;;;;5077338;28;20040;-61
2020/12/02 06:47:49;;;;;;;4.53;3.17;;;2.10;99.90;;;;;;5086704;28;20036;-58
2020/12/02 06:50:18;;;;;;;6.43;3.25;;;2.20;99.90;;;;;;5086645;28;20040;-56
2020/12/02 06:52:43;;;;;;;7.15;4.22;;;2.20;99.90;;;;;;5086789;28;20087;-58
2020/12/02 06:55:13;;;;;;;12.00;6.45;;;2.20;99.90;;;;;;5079232;28;20059;-58
2020/12/02 06:57:39;;;;;;;11.30;6.05;;;2.30;99.90;;;;;;5086844;28;20070;-59
2020/12/02 07:00:18;;;;;;;27.23;14.55;;;2.30;99.90;;;;;;5083201;28;20438;-59
2020/12/02 07:02:46;;;;;;;34.28;16.27;;;2.30;99.90;;;;;;5082650;28;20048;-58
2020/12/02 07:05:34;;;;;;;30.83;15.52;;;2.30;99.90;;;;;;5086444;28;20790;-58
2020/12/02 07:08:31;;;;;;;29.70;15.52;;;2.30;99.90;;;;;;5084682;28;20093;-59
2020/12/02 07:11:07;;;;;;;20.73;11.02;;;2.30;99.90;;;;;;5066885;28;20119;-58
2020/12/02 07:13:37;;;;;;;;;;;2.30;99.90;;;;;;5065536;28;20059;-59
2020/12/02 07:16:20;;;;;;;18.83;9.02;;;2.30;99.90;;;;;;5073268;28;19927;-60
2020/12/02 07:18:47;;;;;;;15.77;8.02;;;2.30;99.90;;;;;;5084577;28;20108;-58
2020/12/02 07:21:37;;;;;;;13.63;7.13;;;2.30;99.90;;;;;;5086487;28;20181;-59
2020/12/02 07:24:04;;;;;;;13.00;6.78;;;2.30;99.90;;;;;;5083964;28;20044;-60
2020/12/02 07:26:30;;;;;;;13.45;6.43;;;2.30;99.90;;;;;;5083261;28;20056;-59
2020/12/02 07:29:11;;;;;;;15.73;7.38;;;2.30;99.90;;;;;;5086389;28;20105;-59
2020/12/02 07:31:37;;;;;;;10.05;5.03;;;2.30;99.90;;;;;;5069898;28;20033;-55
2020/12/02 07:34:12;;;;;;;7.93;4.68;;;2.30;99.90;;;;;;5070360;28;20150;-59
2020/12/02 07:36:38;;;;;;;7.22;5.00;;;2.40;99.90;;;;;;5070321;28;20040;-59
2020/12/02 07:39:19;;;;;;;5.28;3.58;;;2.40;99.90;;;;;;5069578;28;20047;-58
2020/12/02 07:41:54;;;;;;;6.15;4.10;;;2.40;99.90;;;;;;5086006;28;20033;-59
2020/12/02 07:44:21;;;;;;;7.70;4.60;;;2.40;99.90;;;;;;5072937;28;20040;-56
2020/12/02 07:46:52;;;;;;;5.05;3.58;;;2.40;99.90;;;;;;5088468;28;20514;-53
2020/12/02 07:49:18;;;;;;;5.50;3.60;;;2.40;99.90;;;;;;5086615;28;20040;-55
2020/12/02 07:51:49;;;;;;;5.72;3.63;;;2.40;99.90;;;;;;5081630;28;20036;-57
2020/12/02 07:54:22;;;;;;;5.53;3.60;;;2.30;99.90;;;;;;5082004;28;20040;-52
2020/12/02 07:56:49;;;;;;;5.00;3.33;;;2.40;99.90;;;;;;5090197;28;20036;-56
2020/12/02 07:59:20;;;;;;;6.03;3.92;;;2.30;99.90;;;;;;5091190;28;20040;-52
2020/12/02 08:01:56;;;;;;;5.75;3.60;;;2.30;99.90;;;;;;5090455;28;20036;-61
2020/12/02 08:04:22;;;;;;;6.05;3.90;;;2.30;99.90;;;;;;5091049;28;20044;-53
2020/12/02 08:06:58;;;;;;;7.25;4.63;;;2.30;99.90;;;;;;5090803;28;20400;-59
2020/12/02 08:09:24;;;;;;;6.57;4.13;;;2.40;99.90;;;;;;5090884;28;20092;-56
2020/12/02 08:11:59;;;;;;;8.20;5.05;;;2.40;99.90;;;;;;5088652;28;20399;-59
2020/12/02 08:14:33;;;;;;;6.93;4.30;;;2.40;99.90;;;;;;5089185;28;20810;-59
2020/12/02 08:17:12;;;;;;;7.07;4.13;;;2.50;99.90;;;;;;5072467;28;20056;-59
2020/12/02 08:19:41;;;;;;;7.53;4.45;;;2.50;99.90;;;;;;5068873;28;20040;-59
2020/12/02 08:22:15;;;;;;;8.52;5.55;;;2.60;99.90;;;;;;5078391;28;20044;-58
2020/12/02 08:24:43;;;;;;;7.07;4.40;;;2.60;99.90;;;;;;5087845;28;20044;-60
2020/12/02 08:27:13;;;;;;;8.13;4.78;;;2.60;99.90;;;;;;5082353;28;20047;-60
2020/12/02 08:29:46;;;;;;;7.95;4.70;;;2.50;99.90;;;;;;5088604;28;20051;-61
2020/12/02 08:32:25;;;;;;;8.18;5.07;;;2.50;99.90;;;;;;5088737;28;20048;-60
2020/12/02 08:34:51;;;;;;;9.77;5.78;;;2.40;99.90;;;;;;5088999;28;20055;-60
2020/12/02 08:37:35;;;;;;;10.20;6.40;;;2.50;99.90;;;;;;5073683;28;20541;-60
2020/12/02 08:40:25;;;;;;;8.90;5.50;;;2.40;99.90;;;;;;5088390;28;20047;-60
2020/12/02 08:42:51;;;;;;;10.50;6.07;;;2.40;99.90;;;;;;5087672;28;20099;-59
2020/12/02 08:45:23;;;;;;;9.60;5.75;;;2.40;99.90;;;;;;5068117;28;20072;-61
2020/12/02 08:47:53;;;;;;;10.20;5.85;;;2.50;99.90;;;;;;5068353;28;20495;-60
2020/12/02 08:50:28;;;;;;;10.07;6.57;;;2.40;99.90;;;;;;5071104;28;20032;-61
2020/12/02 08:52:55;;;;;;;9.48;5.70;;;2.50;99.90;;;;;;5086904;28;20040;-60
2020/12/02 08:55:22;;;;;;;11.25;5.95;;;2.50;99.90;;;;;;5086427;28;20058;-61
2020/12/02 08:57:48;;;;;;;10.15;5.82;;;2.50;99.90;;;;;;5086509;28;20047;-60
2020/12/02 09:00:16;;;;;;;9.77;5.47;;;2.50;99.90;;;;;;5088265;28;20780;-61
2020/12/02 09:02:41;;;;;;;7.55;4.85;;;2.50;99.90;;;;;;5088876;28;20611;-60
2020/12/02 09:05:07;;;;;;;10.13;5.50;;;2.40;99.90;;;;;;5075477;28;20037;-61
2020/12/02 09:07:32;;;;;;;10.20;5.43;;;2.40;99.90;;;;;;5069848;28;20037;-60
2020/12/02 09:09:58;;;;;;;10.20;5.68;;;2.30;99.90;;;;;;5067198;28;20069;-61
2020/12/02 09:12:24;;;;;;;10.00;5.60;;;2.50;99.90;;;;;;5067818;28;20037;-60
2020/12/02 09:14:50;;;;;;;8.40;4.93;;;2.50;99.90;;;;;;5068225;28;20097;-58
2020/12/02 09:17:15;;;;;;;9.25;5.57;;;2.50;99.90;;;;;;5067761;28;20052;-60
2020/12/02 09:19:42;;;;;;;9.73;5.55;;;2.50;99.90;;;;;;5068380;28;20036;-61
2020/12/02 09:22:07;;;;;;;8.43;4.53;;;2.50;99.90;;;;;;5080971;28;20044;-61
2020/12/02 09:24:33;;;;;;;8.65;5.03;;;2.60;99.90;;;;;;5077737;28;20051;-61
2020/12/02 09:26:59;;;;;;;7.95;4.90;;;2.60;99.90;;;;;;5084641;28;20044;-60
2020/12/02 09:29:24;;;;;;;10.30;5.35;;;2.70;99.90;;;;;;5087342;28;20491;-60
2020/12/02 09:31:50;;;;;;;10.60;5.90;;;2.70;99.90;;;;;;5087617;28;20606;-61
2020/12/02 09:34:17;;;;;;;8.68;5.15;;;2.80;99.90;;;;;;5087945;28;20120;-58
2020/12/02 09:36:45;;;;;;;10.32;6.60;;;2.80;99.90;;;;;;5071699;28;20051;-59
2020/12/02 09:39:12;;;;;;;19.75;11.75;;;2.80;99.90;;;;;;5066657;28;20051;-60
2020/12/02 09:42:06;;;;;;;28.58;24.48;;;2.80;99.90;;;;;;5071853;28;20043;-60
2020/12/02 09:44:55;;;;;;;14.52;11.43;;;2.80;99.90;;;;;;5072072;28;20051;-61
2020/12/02 09:47:20;;;;;;;7.90;4.97;;;2.90;99.90;;;;;;5077224;28;20032;-60
2020/12/02 09:49:48;;;;;;;4.07;2.90;;;2.80;99.90;;;;;;5082107;28;20411;-58
2020/12/02 09:52:13;;;;;;;7.47;4.00;;;2.90;99.90;;;;;;5083984;28;20098;-58
2020/12/02 09:54:44;;;;;;;118.20;68.75;;;2.90;99.90;;;;;;5074173;28;20040;-61
2020/12/02 09:57:26;;;;;;;10.77;6.82;;;2.90;99.90;;;;;;5083335;28;20040;-59
2020/12/02 09:59:59;;;;;;;4.95;3.03;;;2.90;99.90;;;;;;5086907;28;20063;-60
2020/12/02 10:02:36;;;;;;;7.38;3.47;;;2.90;99.90;;;;;;5086614;28;20048;-60
2020/12/02 10:05:25;;;;;;;6.18;3.78;;;2.90;99.90;;;;;;5086615;28;20052;-58
2020/12/02 10:08:02;;;;;;;17.70;10.20;;;3.00;99.90;;;;;;5072711;28;20082;-57
2020/12/02 10:10:56;;;;;;;13.20;7.65;;;3.00;99.90;;;;;;5084171;28;20040;-59
2020/12/02 10:13:35;;;;;;;8.88;5.50;;;3.10;99.90;;;;;;5080506;28;20048;-61
2020/12/02 10:16:14;;;;;;;4.80;3.22;;;3.00;99.90;;;;;;5066383;28;20526;-61
2020/12/02 10:19:18;;;;;;;18.15;10.98;;;2.90;99.90;;;;;;5077850;28;20032;-60
2020/12/02 10:22:02;;;;;;;12.65;3.83;;;2.90;99.90;;;;;;5083040;28;20388;-61
2020/12/02 10:25:00;;;;;;;7.00;3.25;;;2.90;99.90;;;;;;5072118;28;20055;-56
2020/12/02 10:28:06;;;;;;;6.40;3.38;;;2.90;99.90;;;;;;5071052;28;20049;-61
2020/12/02 10:30:37;;;;;;;5.07;2.83;;;2.90;99.90;;;;;;5066379;28;20518;-62
2020/12/02 10:33:22;;;;;;;5.03;3.28;;;3.00;99.90;;;;;;5067181;28;20044;-64
2020/12/02 10:35:49;;;;;;;7.82;3.88;;;2.90;99.90;;;;;;5085194;28;20048;-58
2020/12/02 10:38:28;;;;;;;12.10;7.45;;;2.90;99.90;;;;;;5072147;28;20039;-59
2020/12/02 10:41:15;;;;;;;9.00;5.47;;;3.00;99.90;;;;;;5066354;28;20055;-59
2020/12/02 10:43:53;;;;;;;6.60;3.60;;;3.00;99.90;;;;;;5066395;28;20604;-54
2020/12/02 10:46:37;;;;;;;7.25;3.63;;;3.00;99.90;;;;;;5066793;28;20032;-55
2020/12/02 10:49:21;;;;;;;6.50;3.83;;;3.00;99.90;;;;;;5076436;28;20043;-57
2020/12/02 10:51:50;;;;;;;14.27;8.80;;;3.00;99.90;;;;;;5067067;28;20049;-60
2020/12/02 10:54:16;;;;;;;9.43;5.32;;;3.00;99.90;;;;;;5070421;28;20428;-59
2020/12/02 10:56:42;;;;;;;8.75;4.80;;;2.90;99.90;;;;;;5086725;28;20097;-60
2020/12/02 10:59:12;;;;;;;10.07;5.93;;;2.90;99.90;;;;;;5071809;28;20115;-60
2020/12/02 11:01:40;;;;;;;12.80;7.82;;;2.90;99.90;;;;;;5065819;28;20071;-61
2020/12/02 11:04:06;;;;;;;11.57;6.22;;;2.80;99.90;;;;;;5066995;28;20040;-59
2020/12/02 11:06:44;;;;;;;11.07;5.10;;;2.70;99.90;;;;;;5066817;28;20036;-61
2020/12/02 11:09:32;;;;;;;13.63;6.68;;;2.50;99.90;;;;;;5067866;28;20688;-61
2020/12/02 11:12:19;;;;;;;10.32;5.32;;;2.50;99.90;;;;;;5067066;28;20116;-60
2020/12/02 11:15:02;;;;;;;8.70;4.40;;;2.50;99.90;;;;;;5066910;28;20075;-59
2020/12/02 11:17:45;;;;;;;7.50;3.85;;;2.60;99.90;;;;;;5065850;28;20222;-60
2020/12/02 11:20:19;;;;;;;6.82;3.83;;;2.60;99.90;;;;;;5065741;28;20400;-58
2020/12/02 11:23:25;;;;;;;58.13;32.00;;;2.70;99.90;;;;;;5063920;28;20136;-58
2020/12/02 11:26:13;;;;;;;15.30;7.60;;;2.80;99.90;;;;;;5069632;28;20154;-60
2020/12/02 11:28:44;;;;;;;12.90;5.47;;;2.80;99.90;;;;;;5085147;28;20040;-60
2020/12/02 11:31:40;;;;;;;8.70;4.65;;;2.80;99.90;;;;;;5085038;28;20059;-56
2020/12/02 11:34:32;;;;;;;11.48;6.20;;;2.80;99.90;;;;;;5085991;28;20044;-59
2020/12/02 11:36:58;;;;;;;15.75;8.40;;;2.80;99.90;;;;;;5086306;28;20099;-60
2020/12/02 11:39:33;;;;;;;12.13;6.30;;;2.80;99.90;;;;;;5075463;28;20565;-59
2020/12/02 11:42:15;;;;;;;17.10;8.02;;;2.80;99.90;;;;;;5070846;28;20058;-63
2020/12/02 11:44:53;;;;;;;8.48;4.75;;;2.80;99.90;;;;;;5083507;28;20044;-58
2020/12/02 11:47:50;;;;;;;12.07;6.20;;;2.60;99.90;;;;;;5077744;28;20056;-60
2020/12/02 11:50:33;;;;;;;14.27;3.70;;;2.70;99.90;;;;;;5083840;28;20048;-63
2020/12/02 11:53:40;;;;;;;8.60;4.57;;;2.80;99.90;;;;;;5082552;28;20111;-53
2020/12/02 11:56:44;;;;;;;8.15;4.40;;;2.70;99.90;;;;;;5073679;28;20063;-56
2020/12/02 11:59:17;;;;;;;8.10;4.47;;;2.80;99.90;;;;;;5077364;28;20492;-53
2020/12/02 12:02:17;;;;;;;11.35;6.28;;;2.80;99.90;;;;;;5084517;28;20068;-57
2020/12/02 12:05:04;;;;;;;8.20;4.65;;;2.80;99.90;;;;;;5073308;28;20054;-54
2020/12/02 12:07:38;;;;;;;;;;;2.70;99.90;;;;;;5077189;28;20757;-57
2020/12/02 12:10:14;;;;;;;6.28;4.28;;;2.70;99.90;;;;;;5082341;28;19923;-54
2020/12/02 12:12:53;;;;;;;7.65;4.28;;;2.70;99.90;;;;;;5071370;28;20044;-55
2020/12/02 12:15:27;;;;;;;7.57;4.10;;;2.70;99.90;;;;;;5073542;28;20036;-59
2020/12/02 12:17:54;;;;;;;9.23;4.90;;;2.80;99.90;;;;;;5076134;28;20036;-56
2020/12/02 12:20:24;;;;;;;9.18;4.68;;;2.80;99.90;;;;;;5069488;28;20082;-59
2020/12/02 12:23:06;;;;;;;8.77;4.70;;;2.80;99.90;;;;;;5077270;28;20067;-55
2020/12/02 12:25:34;;;;;;;8.10;4.50;;;2.70;99.90;;;;;;5079278;28;20032;-53
2020/12/02 12:28:14;;;;;;;6.45;4.18;;;2.60;99.90;;;;;;5076778;28;20044;-55
2020/12/02 12:30:40;;;;;;;7.28;4.20;;;2.70;99.90;;;;;;5087261;28;20119;-58
2020/12/02 12:33:15;;;;;;;8.40;5.15;;;2.60;99.90;;;;;;5082518;28;20123;-53
2020/12/02 12:35:46;;;;;;;13.05;7.50;;;2.60;99.90;;;;;;5085920;28;20040;-53
2020/12/02 12:38:37;;;;;;;12.13;7.45;;;2.50;99.90;;;;;;5074236;28;20520;-53
2020/12/02 12:41:22;;;;;;;7.85;4.93;;;2.50;99.90;;;;;;5068624;28;20097;-56
2020/12/02 12:44:08;;;;;;;6.90;3.90;;;2.70;99.90;;;;;;5068802;28;20051;-62
2020/12/02 12:46:41;;;;;;;7.57;4.25;;;2.70;99.90;;;;;;5069015;28;20068;-58
2020/12/02 12:49:11;;;;;;;10.38;5.20;;;2.70;99.90;;;;;;5083975;28;20115;-57
2020/12/02 12:51:38;;;;;;;8.90;4.70;;;2.70;99.90;;;;;;5082122;28;20503;-57
2020/12/02 12:54:12;;;;;;;8.27;5.10;;;2.80;99.90;;;;;;5079894;28;20040;-59
2020/12/02 12:56:40;;;;;;;8.43;4.72;;;2.60;99.90;;;;;;5083584;28;20105;-51
2020/12/02 12:59:08;;;;;;;13.02;7.88;;;2.50;99.90;;;;;;5080584;28;20109;-54
2020/12/02 13:01:35;;;;;;;11.73;6.15;;;2.50;99.90;;;;;;5080921;28;20107;-59
2020/12/02 13:04:02;;;;;;;7.70;4.72;;;2.50;99.90;;;;;;5067067;28;20047;-58
2020/12/02 13:06:34;;;;;;;6.63;4.25;;;2.60;99.90;;;;;;5081838;28;20779;-56
2020/12/02 13:09:05;;;;;;;7.95;4.72;;;2.70;99.90;;;;;;5083777;28;20123;-59
2020/12/02 13:11:48;;;;;;;8.45;4.97;;;2.70;99.90;;;;;;5068351;28;20075;-57
2020/12/02 13:14:24;;;;;;;8.73;4.97;;;2.70;99.90;;;;;;5067422;28;20715;-53
2020/12/02 13:17:21;;;;;;;10.98;5.25;;;2.60;99.90;;;;;;5085744;28;20047;-53
2020/12/02 13:20:08;;;;;;;8.20;4.37;;;2.70;99.90;;;;;;5051892;28;20090;-52
2020/12/02 13:22:59;;;;;;;6.55;4.00;;;2.60;99.90;;;;;;5074648;28;20047;-57